Time;durP1;ratioP1;P1;durP2;ratioP2;P2;SDS_P1;SDS_P2;PMS_P1;PMS_P2;Temp;Humidity;BMP_temperature;BMP_pressure;BME280_temperature;BME280_humidity;BME280_pressure;Samples;Min_cycle;Max_cycle;Signal;HPM_P1;HPM_P2
2023/08/06 00:03:16;;;;;;;2.20;1.60;;;;;;;20.34;57.58;96034.31;10521955;28;20036;-28
2023/08/06 00:08:16;;;;;;;1.37;1.10;;;;;;;20.35;57.79;96035.16;10519739;28;20036;-29
2023/08/06 00:13:16;;;;;;;1.50;1.10;;;;;;;20.31;57.94;96043.69;10526754;28;20043;-29
2023/08/06 00:18:17;;;;;;;1.30;1.00;;;;;;;20.28;57.97;96016.59;10529801;28;20082;-29
2023/08/06 00:23:18;;;;;;;1.43;1.03;;;;;;;20.42;57.54;96003.66;10531401;28;20645;-29
2023/08/06 00:28:18;;;;;;;1.13;0.85;;;;;;;20.45;57.92;96012.09;10541087;28;20032;-28
2023/08/06 00:33:18;;;;;;;2.10;0.80;;;;;;;20.47;57.78;96013.69;10531778;28;20547;-29
2023/08/06 00:38:19;;;;;;;2.13;1.00;;;;;;;20.47;57.97;95990.81;10523633;28;20115;-29
2023/08/06 00:43:19;;;;;;;1.10;1.00;;;;;;;20.48;57.96;95992.50;10535818;28;20040;-29
2023/08/06 00:48:20;;;;;;;1.30;1.00;;;;;;;20.54;58.97;95987.28;10518045;28;20037;-28
2023/08/06 00:53:20;;;;;;;1.55;1.02;;;;;;;20.59;59.10;95990.59;10539855;28;20040;-30
2023/08/06 00:58:21;;;;;;;1.20;0.90;;;;;;;20.62;58.59;95985.44;10530304;28;20247;-28
2023/08/06 01:03:21;;;;;;;1.45;1.13;;;;;;;20.58;58.54;95966.03;10528561;28;20557;-29
2023/08/06 01:08:48;;;;;;;1.40;1.27;;;;;;;20.56;58.54;95975.38;10520328;28;20383;-29
2023/08/06 01:13:58;;;;;;;2.25;1.33;;;;;;;20.54;58.65;95955.97;10516715;28;20364;-28
2023/08/06 01:18:58;;;;;;;3.25;1.23;;;;;;;20.53;58.56;95954.25;10538178;28;20036;-29
2023/08/06 01:23:58;;;;;;;1.10;0.90;;;;;;;20.51;58.62;95953.47;10537622;28;20040;-29
2023/08/06 01:29:37;;;;;;;1.97;1.10;;;;;;;20.52;58.47;95965.28;10538816;28;20028;-28
2023/08/06 01:34:40;;;;;;;2.97;1.10;;;;;;;20.51;58.53;95956.84;10521345;28;20297;-28
2023/08/06 01:39:43;;;;;;;1.55;1.08;;;;;;;20.61;58.71;95949.84;10518371;28;20058;-28
2023/08/06 01:44:43;;;;;;;1.90;1.20;;;;;;;20.62;58.73;95939.66;10545601;28;20032;-29
2023/08/06 01:49:44;;;;;;;1.63;0.93;;;;;;;20.60;58.55;95946.50;10512743;28;20032;-28
2023/08/06 01:54:44;;;;;;;1.77;1.20;;;;;;;20.58;58.46;95937.22;10526615;28;20096;-28
2023/08/06 01:59:45;;;;;;;1.27;0.93;;;;;;;20.56;58.59;95931.31;10498792;28;20041;-30
2023/08/06 02:04:45;;;;;;;2.63;0.83;;;;;;;20.54;58.36;95941.53;10519061;28;20443;-29
2023/08/06 02:09:46;;;;;;;1.10;0.70;;;;;;;20.51;58.80;95939.06;10515885;28;20063;-28
2023/08/06 02:14:47;;;;;;;1.03;0.93;;;;;;;20.51;58.63;95936.50;10528300;28;20102;-29
2023/08/06 02:19:47;;;;;;;1.43;1.00;;;;;;;20.51;58.66;95921.25;10530391;28;20043;-28
2023/08/06 02:24:49;;;;;;;2.10;1.07;;;;;;;20.53;58.58;95932.22;10514279;28;20088;-28
2023/08/06 02:29:49;;;;;;;3.47;0.73;;;;;;;20.58;58.32;95927.88;10523995;28;20036;-29
2023/08/06 02:34:50;;;;;;;2.23;1.13;;;;;;;20.62;58.41;95957.47;10531690;28;20115;-29
2023/08/06 02:39:50;;;;;;;1.40;0.80;;;;;;;20.56;58.27;95947.41;10506823;28;20020;-28
2023/08/06 02:44:51;;;;;;;2.27;1.33;;;;;;;20.56;58.57;95934.69;10531026;28;20032;-29
2023/08/06 02:49:51;;;;;;;2.15;1.10;;;;;;;20.52;58.56;95955.97;10528689;28;20024;-28
2023/08/06 02:54:52;;;;;;;1.33;1.02;;;;;;;20.53;58.50;95969.50;10510135;28;20032;-28
2023/08/06 02:59:53;;;;;;;1.25;0.98;;;;;;;20.50;58.59;95975.53;10505639;28;20110;-29
2023/08/06 03:04:56;;;;;;;2.15;0.93;;;;;;;20.50;58.96;95987.38;10533102;28;20051;-28
2023/08/06 03:10:01;;;;;;;2.40;0.88;;;;;;;20.49;58.69;95986.56;10522609;28;20039;-28
2023/08/06 03:15:03;;;;;;;2.05;1.08;;;;;;;20.54;58.40;95977.13;10510729;28;20028;-28
2023/08/06 03:20:04;;;;;;;1.15;0.80;;;;;;;20.59;58.69;95975.34;10529157;28;20028;-29
2023/08/06 03:25:07;;;;;;;1.27;0.70;;;;;;;20.60;58.47;95966.84;10515818;28;20059;-29
2023/08/06 03:30:09;;;;;;;1.17;0.60;;;;;;;20.58;58.46;95962.63;10509007;28;20032;-29
2023/08/06 03:35:11;;;;;;;1.67;0.60;;;;;;;20.54;58.52;95971.22;10512084;28;20042;-29
2023/08/06 03:40:11;;;;;;;2.67;0.90;;;;;;;20.52;58.70;95957.66;10514919;28;20053;-28
2023/08/06 03:45:12;;;;;;;2.00;0.65;;;;;;;20.51;58.47;95956.84;10524130;28;20287;-28
2023/08/06 03:50:13;;;;;;;2.05;0.90;;;;;;;20.52;58.74;95962.75;10503787;28;20451;-28
2023/08/06 03:55:14;;;;;;;1.02;0.70;;;;;;;20.49;58.75;95963.69;10509391;28;20123;-28
2023/08/06 04:00:15;;;;;;;0.82;0.55;;;;;;;20.48;59.09;95959.44;10513730;28;20024;-28
2023/08/06 04:05:15;;;;;;;1.52;0.80;;;;;;;20.54;58.77;95961.88;10528619;28;20047;-28
2023/08/06 04:10:16;;;;;;;2.60;0.95;;;;;;;20.57;58.93;95956.69;10515490;28;20036;-29
2023/08/06 04:15:18;;;;;;;0.70;0.50;;;;;;;20.57;57.82;95966.06;10521910;28;20048;-29
2023/08/06 04:20:18;;;;;;;1.03;0.40;;;;;;;20.57;58.54;95971.97;10513636;28;20043;-28
2023/08/06 04:25:20;;;;;;;0.93;0.40;;;;;;;20.53;58.54;95980.53;10515789;28;20486;-28
2023/08/06 04:30:21;;;;;;;1.67;1.00;;;;;;;20.51;58.54;95971.25;10506781;28;20102;-28
2023/08/06 04:35:21;;;;;;;2.00;0.70;;;;;;;20.50;58.56;95964.50;10516923;28;20043;-29
2023/08/06 04:40:22;;;;;;;1.10;0.40;;;;;;;20.49;58.53;95973.00;10512999;28;20090;-28
2023/08/06 04:45:24;;;;;;;1.10;0.68;;;;;;;20.47;58.50;95972.19;10527244;28;20028;-28
2023/08/06 04:50:24;;;;;;;0.73;0.50;;;;;;;20.48;58.80;95961.97;10531114;28;20032;-28
2023/08/06 04:55:25;;;;;;;1.38;0.50;;;;;;;20.54;57.84;95954.22;10530982;28;20046;-28
2023/08/06 05:00:25;;;;;;;1.80;0.53;;;;;;;20.57;57.79;95955.88;10522558;28;20375;-28
2023/08/06 05:05:26;;;;;;;1.27;0.50;;;;;;;20.58;57.71;95963.50;10537549;28;20489;-28
2023/08/06 05:10:27;;;;;;;0.60;0.40;;;;;;;20.55;57.68;95983.88;10531973;28;20282;-29
2023/08/06 05:15:27;;;;;;;0.70;0.30;;;;;;;20.50;58.03;95965.34;10529865;28;20028;-28
2023/08/06 05:20:27;;;;;;;0.70;0.40;;;;;;;20.51;58.21;95981.44;10527790;28;20406;-28
2023/08/06 05:25:28;;;;;;;2.67;0.50;;;;;;;20.49;58.26;95978.09;10536511;28;20542;-29
2023/08/06 05:30:28;;;;;;;0.80;0.60;;;;;;;20.49;58.40;95989.09;10539389;28;20020;-29
2023/08/06 05:35:29;;;;;;;3.13;0.50;;;;;;;20.48;58.40;95995.03;10538405;28;20043;-28
2023/08/06 05:40:29;;;;;;;1.50;0.70;;;;;;;20.49;58.40;95986.56;10524621;28;20032;-28
2023/08/06 05:45:29;;;;;;;2.87;0.57;;;;;;;20.55;58.01;96004.22;10533064;28;20820;-28
2023/08/06 05:50:30;;;;;;;3.33;1.13;;;;;;;20.54;58.94;96002.56;10536862;28;20115;-30
2023/08/06 05:55:32;;;;;;;3.90;0.60;;;;;;;20.56;58.42;96005.91;10529846;28;20036;-28
2023/08/06 06:00:32;;;;;;;8.93;1.67;;;;;;;20.53;58.60;96011.06;10526971;28;20036;-28
2023/08/06 06:05:32;;;;;;;10.90;1.90;;;;;;;20.47;59.64;96003.53;10530662;28;20036;-28
2023/08/06 06:10:33;;;;;;;4.03;0.60;;;;;;;20.39;58.56;96013.00;10535380;28;20039;-29
2023/08/06 06:15:33;;;;;;;1.53;0.60;;;;;;;20.39;58.86;96015.56;10529611;28;20040;-28
2023/08/06 06:20:33;;;;;;;25.53;4.37;;;;;;;20.34;60.67;96023.31;10534311;28;20031;-29
2023/08/06 06:25:34;;;;;;;12.98;2.33;;;;;;;20.19;60.32;96028.66;10516160;28;20032;-28
2023/08/06 06:30:34;;;;;;;10.53;2.20;;;;;;;20.27;60.24;96037.00;10528306;28;20393;-29
2023/08/06 06:35:35;;;;;;;5.25;0.90;;;;;;;20.27;58.72;96037.81;10521154;28;20151;-28
2023/08/06 06:40:35;;;;;;;5.37;0.97;;;;;;;20.33;59.30;96034.34;10529403;28;20397;-28
2023/08/06 06:45:35;;;;;;;6.47;0.93;;;;;;;20.40;58.80;96047.72;10535109;28;20036;-29
2023/08/06 06:50:36;;;;;;;4.77;0.90;;;;;;;20.42;58.43;96047.72;10534584;28;20032;-29
2023/08/06 06:55:36;;;;;;;3.40;1.08;;;;;;;20.44;58.07;96061.22;10534791;28;20038;-29
2023/08/06 07:00:37;;;;;;;2.13;0.87;;;;;;;20.42;57.91;96056.19;10524336;28;20032;-29
2023/08/06 07:05:37;;;;;;;4.20;1.02;;;;;;;20.42;58.13;96053.66;10536249;28;20735;-29
2023/08/06 07:10:40;;;;;;;2.70;0.60;;;;;;;20.44;57.74;96057.00;10527900;28;20032;-28
2023/08/06 07:15:40;;;;;;;5.53;0.85;;;;;;;20.43;58.28;96068.03;10522414;28;20113;-28
2023/08/06 07:20:41;;;;;;;1.83;0.43;;;;;;;20.43;57.55;96060.41;10528811;28;20032;-29
2023/08/06 07:25:41;;;;;;;1.30;0.33;;;;;;;20.44;57.47;96063.78;10529962;28;20651;-29
2023/08/06 07:30:43;;;;;;;1.97;0.40;;;;;;;20.48;57.21;96065.41;10534158;28;20035;-29
2023/08/06 07:35:43;;;;;;;3.72;0.80;;;;;;;20.48;57.05;96084.03;10523094;28;20043;-29
2023/08/06 07:40:44;;;;;;;1.20;0.40;;;;;;;20.43;57.38;96083.28;10530278;28;20398;-29
2023/08/06 07:45:45;;;;;;;1.60;0.40;;;;;;;20.44;57.53;96097.69;10533477;28;20032;-29
2023/08/06 07:50:50;;;;;;;1.23;0.38;;;;;;;20.40;58.17;96079.97;10531545;28;20036;-30
2023/08/06 07:55:51;;;;;;;2.10;0.47;;;;;;;20.42;58.19;96092.66;10527937;28;20040;-28
2023/08/06 08:00:52;;;;;;;1.23;0.40;;;;;;;20.42;57.87;96090.94;10522059;28;20070;-28
2023/08/06 08:05:58;;;;;;;1.08;0.63;;;;;;;20.43;57.44;96092.63;10525180;28;20024;-28
2023/08/06 08:11:00;;;;;;;0.57;0.27;;;;;;;20.42;57.60;96107.91;10526621;28;20028;-29
2023/08/06 08:16:01;;;;;;;0.63;0.40;;;;;;;20.45;57.27;96108.72;10523789;28;20032;-29
2023/08/06 08:21:01;;;;;;;0.77;0.20;;;;;;;20.45;56.82;96104.44;10529560;28;20431;-28
2023/08/06 08:26:03;;;;;;;0.25;0.13;;;;;;;20.42;56.87;96102.84;10529329;28;20032;-28
2023/08/06 08:31:08;;;;;;;0.43;0.20;;;;;;;20.46;57.08;96115.47;10517915;28;20052;-29
2023/08/06 08:36:09;;;;;;;2.17;0.30;;;;;;;20.43;57.80;96123.97;10520225;28;20486;-29
2023/08/06 08:41:10;;;;;;;0.77;0.30;;;;;;;20.43;57.06;96118.91;10538816;28;20085;-28
2023/08/06 08:46:12;;;;;;;0.80;0.30;;;;;;;20.42;57.52;96122.31;10540231;28;20137;-29
2023/08/06 08:51:14;;;;;;;0.60;0.40;;;;;;;20.42;57.56;96135.88;10539063;28;20051;-29
2023/08/06 08:56:15;;;;;;;0.30;0.25;;;;;;;20.40;57.51;96136.72;10533060;28;20513;-29
2023/08/06 09:01:16;;;;;;;0.50;0.20;;;;;;;20.42;57.44;96133.34;10538658;28;20081;-29
2023/08/06 09:06:20;;;;;;;2.20;0.30;;;;;;;20.43;56.97;96141.78;10528261;28;20467;-28
2023/08/06 09:11:21;;;;;;;0.63;0.28;;;;;;;20.46;56.62;96156.16;10531864;28;20042;-28
2023/08/06 09:16:21;;;;;;;0.10;0.10;;;;;;;20.46;56.70;96159.50;10530809;28;20032;-28
2023/08/06 09:21:22;;;;;;;0.60;0.20;;;;;;;20.44;57.04;96158.72;10538438;28;20055;-28
2023/08/06 09:26:24;;;;;;;0.30;0.20;;;;;;;20.43;57.13;96167.19;10537998;28;20035;-28
2023/08/06 09:31:32;;;;;;;0.28;0.20;;;;;;;20.42;57.29;96171.47;10535066;28;20157;-29
2023/08/06 09:36:32;;;;;;;0.28;0.10;;;;;;;20.40;57.26;96177.41;10530559;28;20031;-29
2023/08/06 09:41:32;;;;;;;0.30;0.17;;;;;;;20.34;57.59;96165.69;10528371;28;20036;-28
2023/08/06 09:46:33;;;;;;;0.60;0.20;;;;;;;20.37;57.96;96178.34;10537097;28;20040;-28
2023/08/06 09:51:34;;;;;;;0.10;0.10;;;;;;;20.39;57.67;96180.81;10536671;28;20036;-28
2023/08/06 09:56:37;;;;;;;1.15;0.10;;;;;;;20.42;56.98;96190.97;10537580;28;20298;-29
2023/08/06 10:01:37;;;;;;;0.10;0.10;;;;;;;20.44;56.71;96194.31;10536363;28;20074;-29
2023/08/06 10:06:38;;;;;;;0.27;0.10;;;;;;;20.43;56.53;96192.63;10537383;28;20032;-29
2023/08/06 10:11:39;;;;;;;0.10;0.10;;;;;;;20.40;56.82;96207.09;10532686;28;20335;-28
2023/08/06 10:16:41;;;;;;;0.10;0.10;;;;;;;20.40;57.55;96192.66;10536296;28;20058;-29
2023/08/06 10:22:02;;;;;;;0.10;0.10;;;;;;;20.39;57.21;96201.16;10529231;28;20111;-29
2023/08/06 10:27:02;;;;;;;0.20;0.15;;;;;;;20.37;57.66;96199.53;10528339;28;20040;-29
2023/08/06 10:32:04;;;;;;;0.30;0.20;;;;;;;20.38;57.59;96192.72;10534562;28;20032;-29
2023/08/06 10:37:05;;;;;;;0.10;0.10;;;;;;;20.37;57.18;96212.25;10524178;28;20501;-29
2023/08/06 10:42:19;;;;;;;0.20;0.20;;;;;;;20.36;57.37;96219.88;10535578;28;20036;-29
2023/08/06 10:47:26;;;;;;;0.40;0.20;;;;;;;20.39;56.79;96211.31;10535136;28;20802;-28
2023/08/06 10:52:26;;;;;;;0.32;0.10;;;;;;;20.42;56.28;96202.81;10535142;28;20114;-29
2023/08/06 10:57:27;;;;;;;0.15;0.10;;;;;;;20.38;56.41;96203.75;10533506;28;20123;-29
2023/08/06 11:02:28;;;;;;;0.20;0.00;;;;;;;20.42;56.36;96218.06;10526148;28;20033;-28
2023/08/06 11:07:29;;;;;;;0.30;0.20;;;;;;;20.38;56.44;96224.09;10525617;28;20297;-31
2023/08/06 11:12:34;;;;;;;0.03;0.00;;;;;;;20.38;56.73;96230.00;10527230;28;20428;-27
2023/08/06 11:17:36;;;;;;;0.35;0.20;;;;;;;20.38;57.32;96243.56;10534003;28;20114;-28
2023/08/06 11:22:37;;;;;;;0.20;0.10;;;;;;;20.37;57.47;96246.97;10533806;28;20489;-28
2023/08/06 11:27:37;;;;;;;0.10;0.03;;;;;;;20.32;57.11;96249.59;10528248;28;20127;-29
2023/08/06 11:32:48;;;;;;;0.20;0.20;;;;;;;20.35;57.40;96257.16;10534154;28;20056;-28
2023/08/06 11:37:48;;;;;;;1.02;0.20;;;;;;;20.40;56.80;96279.09;10531458;28;20596;-29
2023/08/06 11:42:50;;;;;;;0.13;0.10;;;;;;;20.42;56.65;96268.09;10532939;28;20090;-29
2023/08/06 11:47:54;;;;;;;0.10;0.10;;;;;;;20.38;56.86;96278.28;10521332;28;20324;-28
2023/08/06 11:53:00;;;;;;;0.30;0.10;;;;;;;20.40;56.95;96279.09;10522332;28;20028;-29
2023/08/06 11:58:06;;;;;;;0.30;0.20;;;;;;;20.40;57.04;96283.38;10528950;28;20101;-28
2023/08/06 12:03:09;;;;;;;;;;;;;;;20.38;57.68;96274.09;10531575;28;20040;-29
2023/08/06 12:08:10;;;;;;;0.20;0.20;;;;;;;20.35;57.86;96272.41;10522099;28;19995;-28
2023/08/06 12:13:11;;;;;;;0.17;0.10;;;;;;;20.35;57.71;96271.59;10532318;28;20040;-28
2023/08/06 12:18:11;;;;;;;0.10;0.10;;;;;;;20.35;58.06;96274.97;10526680;28;20281;-29
2023/08/06 12:23:15;;;;;;;0.20;0.13;;;;;;;20.33;57.72;96276.69;10531275;28;20039;-29
2023/08/06 12:28:15;;;;;;;0.10;0.10;;;;;;;20.38;57.49;96280.84;10518319;28;20024;-29
2023/08/06 12:33:16;;;;;;;0.30;0.13;;;;;;;20.41;57.14;96300.31;10523507;28;20036;-28
2023/08/06 12:38:16;;;;;;;0.20;0.10;;;;;;;20.42;57.29;96301.97;10520609;28;20055;-27
2023/08/06 12:43:16;;;;;;;0.10;0.10;;;;;;;20.39;57.24;96313.03;10518081;28;20028;-28
2023/08/06 12:48:17;;;;;;;0.17;0.17;;;;;;;20.38;57.36;96294.41;10524841;28;20063;-27
2023/08/06 12:53:17;;;;;;;0.10;0.10;;;;;;;20.37;57.51;96293.59;10530286;28;20379;-29
2023/08/06 12:58:18;;;;;;;0.70;0.20;;;;;;;20.37;57.37;96316.47;10531562;28;20035;-29
2023/08/06 13:03:18;;;;;;;0.10;0.10;;;;;;;20.38;57.72;96371.56;10528592;28;20376;-29
2023/08/06 13:08:18;;;;;;;0.73;0.10;;;;;;;20.36;57.83;96352.09;10521243;28;20040;-28
2023/08/06 13:13:19;;;;;;;1.47;0.20;;;;;;;20.34;57.94;96358.91;10531303;28;20031;-28
2023/08/06 13:18:19;;;;;;;1.50;0.17;;;;;;;20.40;57.54;96363.03;10530787;28;20765;-29
2023/08/06 13:23:20;;;;;;;0.47;0.20;;;;;;;20.43;57.42;96373.16;10538296;28;20058;-29
2023/08/06 13:28:20;;;;;;;0.20;0.20;;;;;;;20.43;57.48;96360.47;10533843;28;20036;-28
2023/08/06 13:33:21;;;;;;;0.20;0.20;;;;;;;20.40;57.62;96370.66;10536931;28;20413;-29
2023/08/06 13:38:21;;;;;;;0.20;0.13;;;;;;;20.39;57.67;96363.88;10529756;28;20439;-28
2023/08/06 13:43:21;;;;;;;0.30;0.30;;;;;;;20.39;57.89;96373.22;10532629;28;20282;-28
2023/08/06 13:48:22;;;;;;;0.50;0.20;;;;;;;20.38;57.85;96372.38;10533400;28;20118;-29
2023/08/06 13:53:22;;;;;;;0.97;0.20;;;;;;;20.38;57.71;96368.16;10530752;28;20027;-29
2023/08/06 13:58:23;;;;;;;0.63;0.38;;;;;;;20.30;57.76;96362.31;10525711;28;20024;-28
2023/08/06 14:03:24;;;;;;;0.20;0.20;;;;;;;20.34;57.17;96369.06;10537208;28;20039;-28
2023/08/06 14:08:24;;;;;;;1.33;0.37;;;;;;;20.40;57.24;96385.91;10528506;28;20512;-28
2023/08/06 14:13:25;;;;;;;0.57;0.30;;;;;;;20.42;56.91;96388.44;10526642;28;20456;-29
2023/08/06 14:18:25;;;;;;;0.68;0.17;;;;;;;20.42;56.65;96392.69;10525656;28;20221;-28
2023/08/06 14:23:26;;;;;;;0.57;0.30;;;;;;;20.39;56.78;96399.47;10523622;28;20067;-28
2023/08/06 14:28:26;;;;;;;0.40;0.33;;;;;;;20.38;56.86;96385.09;10532776;28;20032;-28
2023/08/06 14:33:26;;;;;;;1.53;0.50;;;;;;;20.36;56.86;96393.59;10526685;28;20060;-29
2023/08/06 14:38:27;;;;;;;0.20;0.20;;;;;;;20.36;57.53;96436.00;10527376;28;20036;-28
2023/08/06 14:43:27;;;;;;;0.70;0.40;;;;;;;20.36;57.46;96461.41;10534880;28;20032;-28
2023/08/06 14:48:28;;;;;;;1.38;0.70;;;;;;;20.31;57.86;96450.44;10533178;28;20040;-28
2023/08/06 14:53:28;;;;;;;0.43;0.37;;;;;;;20.34;57.61;96466.50;10527424;28;20046;-28
2023/08/06 14:58:28;;;;;;;0.70;0.47;;;;;;;20.37;56.88;96463.94;10528093;28;20024;-28
2023/08/06 15:03:30;;;;;;;0.40;0.20;;;;;;;20.37;56.68;96468.19;10534840;28;20038;-28
2023/08/06 15:08:31;;;;;;;0.80;0.55;;;;;;;20.39;56.68;96460.50;10533666;28;20043;-28
2023/08/06 15:13:31;;;;;;;0.63;0.23;;;;;;;20.41;56.54;96460.50;10534446;28;20036;-28
2023/08/06 15:18:32;;;;;;;0.30;0.30;;;;;;;20.38;56.89;96464.78;10525722;28;20285;-28
2023/08/06 15:23:32;;;;;;;0.30;0.30;;;;;;;20.35;56.88;96467.38;10532312;28;20648;-29
2023/08/06 15:28:32;;;;;;;0.23;0.20;;;;;;;20.33;56.96;96474.19;10529407;28;20078;-30
2023/08/06 15:33:33;;;;;;;0.70;0.47;;;;;;;20.34;57.41;96480.94;10525374;28;20039;-29
2023/08/06 15:38:33;;;;;;;1.37;0.30;;;;;;;20.32;57.69;96488.56;10527913;28;20032;-28
2023/08/06 15:43:34;;;;;;;0.60;0.43;;;;;;;20.32;56.87;96498.75;10531920;28;20039;-29
2023/08/06 15:48:35;;;;;;;0.40;0.38;;;;;;;20.31;57.08;96516.56;10532344;28;20444;-29
2023/08/06 15:53:35;;;;;;;0.93;0.50;;;;;;;20.35;56.23;96524.13;10533028;28;20039;-28
2023/08/06 15:58:35;;;;;;;1.10;0.80;;;;;;;20.37;55.77;96535.16;10519639;28;20278;-28
2023/08/06 16:03:39;;;;;;;0.70;0.50;;;;;;;20.38;55.83;96539.38;10527106;28;20044;-28
2023/08/06 16:08:39;;;;;;;0.93;0.45;;;;;;;20.34;55.85;96539.41;10523879;28;20082;-28
2023/08/06 16:13:40;;;;;;;0.80;0.50;;;;;;;20.34;56.08;96534.34;10530840;28;20556;-29
2023/08/06 16:18:40;;;;;;;0.83;0.40;;;;;;;20.32;57.17;96533.47;10523171;28;20387;-28
2023/08/06 16:23:40;;;;;;;0.97;0.50;;;;;;;20.29;56.94;96536.94;10533086;28;20273;-27
2023/08/06 16:28:41;;;;;;;0.67;0.53;;;;;;;20.30;57.21;96540.28;10527740;28;20295;-29
2023/08/06 16:33:42;;;;;;;1.07;0.60;;;;;;;20.28;56.95;96532.66;10517026;28;20036;-28
2023/08/06 16:38:43;;;;;;;0.95;0.57;;;;;;;20.28;57.08;96542.00;10524930;28;20032;-31
2023/08/06 16:43:44;;;;;;;0.60;0.57;;;;;;;20.30;55.85;96545.38;10524773;28;20040;-27
2023/08/06 16:48:44;;;;;;;1.58;0.60;;;;;;;20.35;55.08;96539.38;10531151;28;20059;-29
2023/08/06 16:53:46;;;;;;;0.63;0.57;;;;;;;20.35;54.63;96548.72;10520082;28;20043;-30
2023/08/06 16:58:46;;;;;;;0.43;0.43;;;;;;;20.31;55.01;96558.09;10536197;28;20262;-28
2023/08/06 17:03:48;;;;;;;2.63;0.80;;;;;;;20.31;55.26;96593.69;10534409;28;20035;-28
2023/08/06 17:08:49;;;;;;;0.98;0.80;;;;;;;20.31;55.67;96603.84;10521641;28;20031;-28
2023/08/06 17:13:49;;;;;;;1.35;0.55;;;;;;;20.21;56.66;96609.88;10531433;28;20106;-31
2023/08/06 17:18:49;;;;;;;1.53;0.80;;;;;;;20.27;56.92;96619.16;10529660;28;20030;-29
2023/08/06 17:23:50;;;;;;;0.73;0.40;;;;;;;20.28;57.16;96620.81;10526093;28;20066;-28
2023/08/06 17:28:50;;;;;;;1.23;0.80;;;;;;;20.29;56.87;96617.44;10517178;28;20040;-29
2023/08/06 17:33:50;;;;;;;5.47;1.03;;;;;;;20.22;57.06;96606.47;10524913;28;20426;-28
2023/08/06 17:38:51;;;;;;;2.50;0.63;;;;;;;20.33;56.89;96616.56;10537242;28;20024;-29
2023/08/06 17:43:51;;;;;;;3.07;0.80;;;;;;;20.34;57.08;96621.63;10537246;28;20032;-28
2023/08/06 17:48:55;;;;;;;3.27;0.93;;;;;;;20.25;56.96;96600.53;10537052;28;20040;-29
2023/08/06 17:53:55;;;;;;;2.30;0.90;;;;;;;20.33;56.71;96608.94;10534112;28;20028;-30
2023/08/06 17:58:56;;;;;;;3.63;0.90;;;;;;;20.32;56.81;96610.63;10535610;28;20024;-29
2023/08/06 18:03:57;;;;;;;7.53;1.30;;;;;;;20.37;56.71;96623.28;10534379;28;20070;-28
2023/08/06 18:08:57;;;;;;;2.30;0.90;;;;;;;20.35;56.30;96630.91;10543434;28;20028;-29
2023/08/06 18:13:57;;;;;;;1.17;0.73;;;;;;;20.34;56.77;96623.31;10526280;28;20425;-28
2023/08/06 18:18:58;;;;;;;6.40;1.00;;;;;;;20.38;56.89;96633.47;10533679;28;20505;-29
2023/08/06 18:23:59;;;;;;;4.97;1.13;;;;;;;20.38;56.43;96619.88;10521390;28;20033;-29
2023/08/06 18:28:59;;;;;;;2.10;1.07;;;;;;;20.42;56.43;96632.56;10541298;28;20047;-28
2023/08/06 18:34:00;;;;;;;4.97;0.98;;;;;;;20.39;56.94;96638.50;10530549;28;20081;-28
2023/08/06 18:39:02;;;;;;;3.42;1.02;;;;;;;20.43;57.21;96637.63;10530941;28;20036;-30
2023/08/06 18:44:03;;;;;;;1.92;0.80;;;;;;;20.45;57.35;96638.47;10530897;28;20036;-29
2023/08/06 18:49:04;;;;;;;2.35;0.77;;;;;;;20.45;57.61;96642.72;10530446;28;20035;-29
2023/08/06 18:54:05;;;;;;;3.47;1.10;;;;;;;20.38;58.25;96636.00;10529980;28;20069;-29
2023/08/06 18:59:06;;;;;;;2.50;1.40;;;;;;;20.41;57.85;96646.13;10527481;28;20478;-29
2023/08/06 19:04:06;;;;;;;1.73;0.90;;;;;;;20.40;57.28;96652.91;10521606;28;20047;-28
2023/08/06 19:09:07;;;;;;;2.87;0.90;;;;;;;20.42;57.64;96657.16;10524426;28;20036;-28
2023/08/06 19:14:07;;;;;;;9.80;2.40;;;;;;;20.37;57.75;96647.03;10526285;28;20098;-29
2023/08/06 19:19:08;;;;;;;3.70;1.17;;;;;;;20.44;58.00;96657.13;10520965;28;20290;-28
2023/08/06 19:24:08;;;;;;;3.87;0.90;;;;;;;20.45;57.96;96668.16;10529687;28;20767;-28
2023/08/06 19:29:08;;;;;;;2.43;1.17;;;;;;;20.38;57.87;96641.91;10528738;28;20028;-28
2023/08/06 19:34:09;;;;;;;1.50;1.10;;;;;;;20.42;57.86;96657.16;10521582;28;20495;-29
2023/08/06 19:39:09;;;;;;;1.77;0.87;;;;;;;20.42;57.33;96660.53;10518286;28;20031;-28
2023/08/06 19:44:10;;;;;;;5.47;1.30;;;;;;;20.41;57.12;96653.75;10514856;28;20115;-29
2023/08/06 19:49:10;;;;;;;5.13;1.13;;;;;;;20.26;57.48;96660.69;10528314;28;20040;-28
2023/08/06 19:54:11;;;;;;;1.67;1.00;;;;;;;19.90;56.87;96655.81;10528531;28;20117;-28
2023/08/06 19:59:11;;;;;;;1.98;1.20;;;;;;;19.90;56.36;96656.66;10525710;28;20119;-29
2023/08/06 20:04:11;;;;;;;2.53;1.40;;;;;;;19.78;55.75;96671.16;10520615;28;20093;-28
2023/08/06 20:09:13;;;;;;;2.47;1.33;;;;;;;20.05;55.68;96665.91;10527721;28;20043;-29
2023/08/06 20:14:13;;;;;;;1.55;1.15;;;;;;;19.86;55.39;96679.56;10524372;28;20037;-28
2023/08/06 20:19:13;;;;;;;2.45;1.10;;;;;;;19.91;55.84;96671.06;10528445;28;20036;-28
2023/08/06 20:24:14;;;;;;;1.63;0.80;;;;;;;19.60;55.06;96694.94;10526629;28;20509;-28
2023/08/06 20:29:14;;;;;;;1.45;1.20;;;;;;;19.32;53.23;96697.59;10476712;28;20293;-28
2023/08/06 20:34:15;;;;;;;2.70;1.20;;;;;;;18.83;54.12;96708.72;10480492;28;20040;-28
2023/08/06 20:39:15;;;;;;;1.13;1.00;;;;;;;18.44;56.35;96688.47;10486467;28;20143;-28
2023/08/06 20:44:15;;;;;;;3.07;1.63;;;;;;;18.56;56.97;96704.50;10528378;28;20294;-28
2023/08/06 20:49:16;;;;;;;3.30;1.10;;;;;;;18.52;58.92;96701.97;10536092;28;20298;-28
2023/08/06 20:54:16;;;;;;;2.43;1.17;;;;;;;18.49;59.69;96702.00;10539479;28;20036;-28
2023/08/06 20:59:16;;;;;;;2.83;1.13;;;;;;;18.40;60.57;96702.00;10539041;28;20139;-28
2023/08/06 21:04:17;;;;;;;2.10;1.00;;;;;;;18.40;59.34;96696.91;10539017;28;20043;-29
2023/08/06 21:09:17;;;;;;;1.90;1.10;;;;;;;18.45;58.29;96715.50;10541883;28;20039;-28
2023/08/06 21:14:18;;;;;;;2.80;1.30;;;;;;;18.41;57.58;96721.41;10534444;28;20087;-28
2023/08/06 21:19:18;;;;;;;2.50;1.17;;;;;;;18.37;57.51;96718.03;10538599;28;20030;-28
2023/08/06 21:24:18;;;;;;;3.47;1.63;;;;;;;18.37;57.38;96727.31;10538730;28;20043;-28
2023/08/06 21:29:19;;;;;;;3.77;1.37;;;;;;;18.35;56.78;96729.00;10531050;28;20446;-28
2023/08/06 21:34:19;;;;;;;3.80;1.10;;;;;;;18.33;56.43;96738.31;10534159;28;20401;-28
2023/08/06 21:39:19;;;;;;;3.20;1.20;;;;;;;18.31;56.50;96739.97;10528178;28;20274;-28
2023/08/06 21:44:20;;;;;;;1.43;1.00;;;;;;;18.27;56.51;96750.94;10529295;28;20326;-29
2023/08/06 21:49:20;;;;;;;1.97;1.33;;;;;;;18.25;56.59;96763.59;10531493;28;20497;-28
2023/08/06 21:54:20;;;;;;;1.43;1.07;;;;;;;18.28;56.10;96762.75;10528278;28;20520;-29
2023/08/06 21:59:21;;;;;;;1.55;0.95;;;;;;;18.33;55.88;96767.03;10537807;28;20039;-28
2023/08/06 22:04:21;;;;;;;4.30;0.90;;;;;;;18.27;55.64;96781.34;10537353;28;20032;-28
2023/08/06 22:09:22;;;;;;;2.43;1.03;;;;;;;18.31;55.56;96770.38;10532840;28;20040;-28
2023/08/06 22:14:22;;;;;;;2.30;0.80;;;;;;;18.26;55.42;96777.94;10532152;28;20571;-28
2023/08/06 22:19:22;;;;;;;2.77;1.13;;;;;;;18.20;55.13;96779.63;10536693;28;20282;-28
2023/08/06 22:24:23;;;;;;;3.03;2.30;;;;;;;18.21;55.44;96781.31;10536673;28;20050;-28
2023/08/06 22:29:23;;;;;;;2.23;1.20;;;;;;;18.12;55.27;96781.31;10536527;28;20039;-29
2023/08/06 22:34:23;;;;;;;2.35;1.13;;;;;;;18.03;55.21;96766.09;10525550;28;20036;-28
2023/08/06 22:39:24;;;;;;;2.20;1.23;;;;;;;18.04;55.03;96782.97;10522841;28;20059;-28
2023/08/06 22:44:24;;;;;;;3.33;1.13;;;;;;;18.06;54.99;96772.00;10522926;28;20031;-28
2023/08/06 22:49:24;;;;;;;1.10;0.80;;;;;;;18.02;54.45;96779.59;10527839;28;20036;-30
2023/08/06 22:54:25;;;;;;;1.57;0.90;;;;;;;18.02;54.65;96775.41;10535111;28;21071;-28
2023/08/06 22:59:25;;;;;;;2.08;1.20;;;;;;;18.00;55.16;96776.22;10534016;28;20470;-28
2023/08/06 23:04:26;;;;;;;1.90;0.90;;;;;;;18.04;54.67;96765.25;10534808;28;20052;-28
2023/08/06 23:09:27;;;;;;;1.25;0.95;;;;;;;18.02;55.53;96765.25;10528711;28;20128;-28
2023/08/06 23:14:27;;;;;;;2.53;1.02;;;;;;;17.95;54.67;96767.75;10517518;28;20240;-27
2023/08/06 23:19:28;;;;;;;1.53;0.90;;;;;;;17.91;54.86;96776.19;10534422;28;20028;-28